Time;durP1;ratioP1;P1;durP2;ratioP2;P2;SDS_P1;SDS_P2;PMS_P1;PMS_P2;Temp;Humidity;BMP_temperature;BMP_pressure;BME280_temperature;BME280_humidity;BME280_pressure;Samples;Min_cycle;Max_cycle;Signal;HPM_P1;HPM_P2
2022/04/22 00:00:33;;;;;;;21.97;13.10;;;;;;;8.35;79.90;99920.23;1729242;83;25372;-71
2022/04/22 00:03:02;;;;;;;19.82;13.38;;;;;;;8.36;79.90;99913.20;1729349;83;25567;-71
2022/04/22 00:05:30;;;;;;;19.20;13.55;;;;;;;8.39;80.01;99917.98;1729266;83;25578;-71
2022/04/22 00:07:56;;;;;;;22.45;12.98;;;;;;;8.41;79.95;99917.66;1729203;83;27941;-71
2022/04/22 00:10:22;;;;;;;20.65;12.40;;;;;;;8.41;79.95;99923.87;1729092;82;32802;-71
2022/04/22 00:12:48;;;;;;;20.15;13.40;;;;;;;8.40;79.83;99914.17;1729185;83;29570;-71
2022/04/22 00:15:14;;;;;;;20.62;14.25;;;;;;;8.41;79.92;99906.88;1729210;82;25840;-71
2022/04/22 00:17:42;;;;;;;21.23;13.88;;;;;;;8.43;79.99;99912.00;1729294;83;32372;-71
2022/04/22 00:20:12;;;;;;;22.50;13.10;;;;;;;8.43;80.06;99915.52;1729225;82;28015;-71
2022/04/22 00:22:40;;;;;;;21.80;14.28;;;;;;;8.44;80.14;99915.73;1729112;83;25565;-70
2022/04/22 00:25:10;;;;;;;27.48;14.35;;;;;;;8.43;80.12;99910.13;1729213;83;25394;-70
2022/04/22 00:27:39;;;;;;;21.75;13.43;;;;;;;8.45;80.10;99915.20;1729286;83;25537;-71
2022/04/22 00:30:08;;;;;;;;;;;;;;;8.45;80.15;99912.52;1731826;82;25588;-71
2022/04/22 00:32:34;;;;;;;19.05;13.88;;;;;;;8.45;80.26;99914.66;1729221;83;27337;-71
2022/04/22 00:35:03;;;;;;;21.37;13.43;;;;;;;8.46;80.22;99917.58;1729134;83;25661;-71
2022/04/22 00:37:29;;;;;;;22.50;14.65;;;;;;;8.46;80.30;99917.58;1729225;82;25625;-71
2022/04/22 00:39:56;;;;;;;20.52;13.18;;;;;;;8.48;80.37;99919.44;1729112;83;26176;-71
2022/04/22 00:42:22;;;;;;;21.37;13.98;;;;;;;8.47;80.34;99915.14;1728905;83;25688;-71
2022/04/22 00:44:48;;;;;;;18.87;13.55;;;;;;;8.49;80.31;99912.14;1729411;83;27315;-71
2022/04/22 00:47:14;;;;;;;19.65;13.45;;;;;;;8.48;80.32;99919.44;1729643;83;33166;-71
2022/04/22 00:49:40;;;;;;;19.50;13.55;;;;;;;8.50;80.34;99919.14;1729442;83;25503;-73
2022/04/22 00:52:08;;;;;;;18.17;13.18;;;;;;;8.49;80.33;99910.80;1729199;82;34697;-73
2022/04/22 00:54:34;;;;;;;19.85;13.03;;;;;;;8.49;80.26;99912.14;1729234;83;25625;-73
2022/04/22 00:57:01;;;;;;;20.48;12.80;;;;;;;8.48;80.26;99905.97;1729271;83;28053;-73
2022/04/22 00:59:30;;;;;;;19.48;12.85;;;;;;;8.47;80.29;99909.75;1729217;83;25592;-73
2022/04/22 01:01:56;;;;;;;17.70;12.28;;;;;;;8.49;80.24;99904.05;1729421;82;25482;-73
2022/04/22 01:09:51;;;;;;;15.13;10.30;;;;;;;8.47;80.24;99906.27;1729204;83;27401;-74
2022/04/22 01:12:19;;;;;;;13.60;9.33;;;;;;;8.42;80.23;99900.39;1701345;83;25598;-74
2022/04/22 01:14:46;;;;;;;12.43;8.68;;;;;;;8.41;80.34;99910.92;1724349;83;25458;-73
2022/04/22 01:17:13;;;;;;;12.90;8.85;;;;;;;8.39;80.38;99907.73;1681600;85;25610;-73
2022/04/22 01:19:41;;;;;;;11.53;9.33;;;;;;;8.39;80.50;99908.55;1722209;83;25440;-74
2022/04/22 01:22:08;;;;;;;11.35;8.65;;;;;;;8.39;80.60;99911.78;1724285;83;27110;-74
2022/04/22 01:24:35;;;;;;;12.53;8.85;;;;;;;8.38;80.66;99910.99;1709575;84;25400;-74
2022/04/22 01:27:02;;;;;;;15.28;8.85;;;;;;;8.38;80.77;99906.16;1724265;83;25595;-74
2022/04/22 01:29:28;;;;;;;13.83;9.38;;;;;;;8.38;80.84;99906.95;1681587;85;25511;-75
2022/04/22 01:31:54;;;;;;;13.03;8.85;;;;;;;8.39;80.90;99907.20;1724270;83;25656;-74
2022/04/22 01:34:20;;;;;;;10.78;7.92;;;;;;;8.40;80.95;99910.69;1724295;83;26867;-75
2022/04/22 01:36:46;;;;;;;15.45;8.73;;;;;;;8.41;80.98;99910.92;1724218;83;25458;-75
2022/04/22 01:39:12;;;;;;;12.70;8.48;;;;;;;8.41;80.97;99914.96;1724253;83;29642;-74
2022/04/22 01:41:38;;;;;;;12.70;8.10;;;;;;;8.39;81.06;99908.55;1724221;83;35073;-74
2022/04/22 01:44:04;;;;;;;10.00;8.00;;;;;;;8.40;81.22;99914.17;1724324;83;32467;-74
2022/04/22 01:46:30;;;;;;;12.25;8.03;;;;;;;8.41;81.35;99913.09;1724282;83;27394;-74
2022/04/22 01:48:58;;;;;;;10.48;7.75;;;;;;;8.43;81.43;99918.73;1724117;83;25735;-74
2022/04/22 01:51:24;;;;;;;10.85;7.70;;;;;;;8.44;81.47;99917.09;1724268;83;25663;-74
2022/04/22 01:53:51;;;;;;;10.10;8.10;;;;;;;8.44;81.53;99909.00;1724202;83;25498;-73
2022/04/22 01:56:18;;;;;;;11.85;7.87;;;;;;;8.46;81.67;99914.88;1724293;83;25459;-74
2022/04/22 01:58:44;;;;;;;9.60;7.83;;;;;;;8.45;81.82;99910.61;1724293;83;27897;-74
2022/04/22 02:01:10;;;;;;;16.10;7.80;;;;;;;8.45;81.87;99905.22;1724316;83;32684;-74
2022/04/22 02:03:36;;;;;;;8.08;6.55;;;;;;;8.43;81.94;99902.56;1724412;83;25604;-74
2022/04/22 02:06:02;;;;;;;8.73;6.95;;;;;;;8.40;82.08;99907.44;1724370;83;25431;-74
2022/04/22 02:08:30;;;;;;;8.63;6.67;;;;;;;8.39;82.05;99906.39;1724416;83;25437;-74
2022/04/22 02:10:56;;;;;;;11.45;6.40;;;;;;;8.37;82.24;99906.69;1721944;83;27318;-74
2022/04/22 02:13:22;;;;;;;8.48;5.90;;;;;;;8.35;82.39;99909.45;1716073;83;32836;-74
2022/04/22 02:15:48;;;;;;;8.73;5.70;;;;;;;8.30;82.37;99910.91;1716160;83;25656;-74
2022/04/22 02:18:14;;;;;;;7.35;5.92;;;;;;;8.24;82.53;99915.63;1716124;83;25619;-74
2022/04/22 02:20:40;;;;;;;7.10;4.90;;;;;;;8.20;82.61;99917.31;1716185;83;32711;-74
2022/04/22 02:23:07;;;;;;;5.72;4.80;;;;;;;8.19;82.95;99917.08;1716150;83;27430;-74
2022/04/22 02:25:33;;;;;;;5.40;4.58;;;;;;;8.15;82.89;99923.59;1716108;83;25654;-74
2022/04/22 02:30:44;;;;;;;7.03;4.47;;;;;;;8.11;83.17;99920.48;1716171;83;25544;-74
2022/04/22 02:33:11;;;;;;;5.83;3.62;;;;;;;8.09;83.28;99914.57;1716152;83;25408;-74
2022/04/22 02:35:37;;;;;;;3.98;3.58;;;;;;;8.07;83.47;99917.59;1716119;83;27967;-74
2022/04/22 02:38:03;;;;;;;6.12;4.20;;;;;;;8.04;83.42;99922.23;1716038;83;32862;-74
2022/04/22 02:46:11;;;;;;;4.58;3.67;;;;;;;7.95;83.66;99911.37;1696819;83;25516;-74
2022/04/22 02:48:37;;;;;;;4.92;3.67;;;;;;;7.96;83.74;99914.29;1716067;83;27387;-74
2022/04/22 02:51:03;;;;;;;3.50;3.20;;;;;;;7.94;83.97;99915.70;1716053;83;25565;-74
2022/04/22 02:53:29;;;;;;;5.95;3.58;;;;;;;7.93;83.99;99914.89;1716153;83;25650;-74
2022/04/22 02:55:56;;;;;;;5.20;3.60;;;;;;;7.92;84.14;99913.86;1716125;83;25546;-74
2022/04/22 02:58:22;;;;;;;5.40;3.55;;;;;;;7.91;84.16;99920.34;1691653;83;25489;-74
2022/04/22 03:00:48;;;;;;;3.62;3.22;;;;;;;7.91;84.27;99920.34;1716145;83;27983;-74
2022/04/22 03:03:14;;;;;;;5.08;3.33;;;;;;;7.89;84.46;99926.58;1716047;83;25498;-74
2022/04/22 03:05:40;;;;;;;4.92;3.67;;;;;;;7.86;84.34;99922.58;1716101;83;25564;-74
2022/04/22 03:08:08;;;;;;;3.77;3.47;;;;;;;7.84;84.56;99926.13;1716046;83;25618;-74
2022/04/22 03:10:34;;;;;;;5.67;4.10;;;;;;;7.83;84.74;99928.55;1716074;83;25633;-74
2022/04/22 03:13:00;;;;;;;3.98;3.58;;;;;;;7.80;84.72;99933.21;1716103;83;27321;-74
2022/04/22 03:15:27;;;;;;;4.62;3.47;;;;;;;7.80;84.84;99929.17;1716036;83;25648;-74
2022/04/22 03:17:53;;;;;;;4.00;3.60;;;;;;;7.79;84.91;99935.09;1716179;83;25631;-74
2022/04/22 03:20:19;;;;;;;3.83;3.52;;;;;;;7.80;84.93;99939.95;1716136;83;25584;-74
2022/04/22 03:22:45;;;;;;;3.55;3.25;;;;;;;7.80;85.03;99934.00;1716193;83;25405;-74
2022/04/22 03:25:12;;;;;;;4.08;3.65;;;;;;;7.80;85.08;99939.38;1716186;83;27424;-75
2022/04/22 03:27:38;;;;;;;5.58;3.42;;;;;;;7.79;85.17;99935.64;1716095;83;25490;-75
2022/04/22 03:30:05;;;;;;;3.00;2.70;;;;;;;7.79;85.10;99938.34;1716199;83;29704;-75
2022/04/22 03:32:31;;;;;;;3.72;3.42;;;;;;;7.78;85.27;99934.85;1716154;83;25404;-75
2022/04/22 03:34:57;;;;;;;4.80;3.30;;;;;;;7.74;85.26;99933.84;1716203;83;32400;-75
2022/04/22 03:37:23;;;;;;;4.83;3.02;;;;;;;7.74;85.37;99933.84;1716207;83;27310;-75
2022/04/22 03:39:49;;;;;;;4.00;3.10;;;;;;;7.73;85.34;99937.64;1716080;83;33100;-75
2022/04/22 03:42:15;;;;;;;4.37;3.50;;;;;;;7.73;85.42;99943.03;1716153;83;29621;-75
2022/04/22 03:44:42;;;;;;;5.75;3.17;;;;;;;7.73;85.46;99947.06;1716151;83;25707;-75
2022/04/22 03:47:08;;;;;;;3.77;2.80;;;;;;;7.72;85.36;99944.11;1716152;83;25486;-75
2022/04/22 03:49:35;;;;;;;4.25;2.98;;;;;;;7.67;85.38;99940.17;1716100;83;27400;-75
2022/04/22 03:52:01;;;;;;;3.62;3.27;;;;;;;7.67;85.73;99944.20;1716000;83;25606;-75
2022/04/22 03:54:27;;;;;;;3.67;3.30;;;;;;;7.65;85.44;99951.79;1716496;83;25427;-74
2022/04/22 03:59:38;;;;;;;3.47;3.15;;;;;;;7.62;85.50;99948.34;1716446;83;25553;-75
2022/04/22 04:02:04;;;;;;;10.10;6.35;;;;;;;7.61;85.60;99943.52;1716087;83;27412;-74
2022/04/22 04:04:31;;;;;;;6.55;4.40;;;;;;;7.61;85.60;99943.52;1716033;83;25539;-74
2022/04/22 04:06:57;;;;;;;4.37;3.70;;;;;;;7.60;85.57;99948.63;1716060;83;25600;-74
2022/04/22 04:17:39;;;;;;;5.50;4.15;;;;;;;7.51;85.44;99955.81;1715983;83;25589;-73
2022/04/22 04:25:39;;;;;;;6.97;6.10;;;;;;;7.54;85.23;99952.50;1716110;83;25649;-73
2022/04/22 04:28:10;;;;;;;6.90;5.37;;;;;;;7.53;84.97;99953.62;1716038;83;27377;-73
2022/04/22 04:30:39;;;;;;;7.80;6.65;;;;;;;7.53;84.75;99954.17;1715989;83;25625;-74
2022/04/22 04:33:07;;;;;;;8.08;7.10;;;;;;;7.54;84.92;99951.72;1715904;83;25585;-73
2022/04/22 04:35:35;;;;;;;9.35;7.05;;;;;;;7.55;84.85;99951.98;1716028;83;25466;-74
2022/04/22 04:38:02;;;;;;;17.67;11.78;;;;;;;7.57;84.77;99961.89;1716084;83;25655;-74
2022/04/22 04:40:29;;;;;;;9.65;7.78;;;;;;;7.61;84.97;99964.23;1716030;83;27313;-74
2022/04/22 04:42:55;;;;;;;8.70;7.17;;;;;;;7.66;84.87;99973.55;1715982;83;25786;-74
2022/04/22 04:45:21;;;;;;;11.83;7.60;;;;;;;7.70;84.76;99965.16;1716075;83;25546;-74
2022/04/22 04:47:47;;;;;;;10.98;9.25;;;;;;;7.76;84.87;99965.85;1716026;83;25530;-75
2022/04/22 04:50:14;;;;;;;10.53;8.95;;;;;;;7.82;84.61;99964.67;1716053;83;25631;-74
2022/04/22 04:52:41;;;;;;;10.85;8.78;;;;;;;7.88;84.49;99962.67;1716046;83;28103;-74
2022/04/22 04:55:10;;;;;;;11.43;8.43;;;;;;;7.94;84.21;99961.48;1715994;83;25622;-74
2022/04/22 04:57:37;;;;;;;9.38;8.18;;;;;;;7.96;83.88;99966.81;1716197;83;25541;-75
2022/04/22 05:00:06;;;;;;;10.32;8.85;;;;;;;8.03;83.83;99975.84;1716027;83;26106;-75
2022/04/22 05:02:35;;;;;;;15.75;10.50;;;;;;;8.07;83.32;99973.34;1691655;83;25671;-75
2022/04/22 05:05:02;;;;;;;14.35;9.85;;;;;;;8.08;82.88;99972.25;1715395;83;27336;-75
2022/04/22 05:07:29;;;;;;;11.83;8.95;;;;;;;8.05;82.64;99969.59;1715945;83;25482;-75
2022/04/22 05:09:55;;;;;;;12.63;9.85;;;;;;;8.04;82.54;99980.93;1715982;83;25512;-74
2022/04/22 05:12:21;;;;;;;11.55;9.33;;;;;;;8.04;82.23;99984.97;1709352;83;35079;-74
2022/04/22 05:14:47;;;;;;;13.80;9.63;;;;;;;8.03;82.36;99991.45;1729208;83;32318;-73
2022/04/22 05:17:13;;;;;;;12.63;9.30;;;;;;;8.06;82.27;99993.31;1699531;84;27395;-74
2022/04/22 05:19:40;;;;;;;14.60;10.60;;;;;;;8.09;82.37;99997.55;1711705;83;25480;-74
2022/04/22 05:22:06;;;;;;;14.15;10.55;;;;;;;8.15;82.24;99997.68;1727663;83;25176;-73
2022/04/22 05:24:32;;;;;;;16.52;12.45;;;;;;;8.17;81.85;99994.69;1711946;83;25956;-74
2022/04/22 05:26:59;;;;;;;13.30;10.43;;;;;;;8.22;81.93;99992.72;1727131;83;25590;-74
2022/04/22 05:34:54;;;;;;;12.82;10.20;;;;;;;8.45;81.54;99984.73;1682980;85;25410;-74
2022/04/22 05:37:21;;;;;;;12.63;10.78;;;;;;;8.59;81.78;99991.44;1709997;83;25611;-73
2022/04/22 05:39:47;;;;;;;10.80;9.60;;;;;;;8.70;81.47;99992.83;1710076;83;25605;-73
2022/04/22 05:42:13;;;;;;;11.15;9.90;;;;;;;8.82;80.56;99988.25;1710055;83;27315;-73
2022/04/22 05:44:40;;;;;;;11.73;9.90;;;;;;;8.90;79.67;99992.89;1709960;83;25478;-74
2022/04/22 05:47:07;;;;;;;9.88;8.88;;;;;;;9.01;79.71;99994.83;1710044;83;29618;-74
2022/04/22 05:49:34;;;;;;;10.65;9.08;;;;;;;9.13;79.49;100003.73;1709843;83;26081;-75
2022/04/22 05:52:00;;;;;;;9.83;8.83;;;;;;;9.22;78.63;100001.09;1710001;83;25716;-74
2022/04/22 05:54:27;;;;;;;10.00;8.60;;;;;;;9.38;78.59;100010.42;1710078;83;27918;-73
2022/04/22 05:56:53;;;;;;;11.75;8.90;;;;;;;9.52;78.11;100003.03;1709940;83;25869;-75
2022/04/22 05:59:19;;;;;;;9.30;8.30;;;;;;;9.63;77.26;100005.47;1710072;83;25576;-75
2022/04/22 06:01:45;;;;;;;12.10;10.25;;;;;;;9.76;76.60;100012.70;1709992;83;34823;-77
2022/04/22 06:04:11;;;;;;;10.88;8.20;;;;;;;9.85;76.72;100017.58;1710070;83;25498;-76
2022/04/22 06:06:37;;;;;;;9.28;8.15;;;;;;;9.98;75.87;100012.41;1710059;83;27913;-77
2022/04/22 06:11:48;;;;;;;8.73;7.70;;;;;;;10.36;75.08;100011.36;1711410;83;25465;-76
2022/04/22 06:14:14;;;;;;;10.35;8.33;;;;;;;10.63;74.51;100006.81;1726223;83;25920;-76
2022/04/22 06:16:41;;;;;;;8.95;7.72;;;;;;;10.72;73.67;100010.31;1691426;84;25505;-75
2022/04/22 06:19:07;;;;;;;10.05;7.90;;;;;;;10.86;72.83;100008.03;1681972;85;28048;-75
2022/04/22 06:21:33;;;;;;;8.35;7.37;;;;;;;10.86;72.34;100012.09;1726110;83;25435;-76
2022/04/22 06:23:59;;;;;;;8.20;7.40;;;;;;;10.88;71.57;100012.02;1726221;83;25430;-76
2022/04/22 06:26:26;;;;;;;9.20;7.30;;;;;;;10.95;70.30;100010.20;1691330;84;25623;-75
2022/04/22 06:28:52;;;;;;;8.30;7.20;;;;;;;11.03;70.82;100016.14;1681923;85;25532;-75
2022/04/22 06:31:19;;;;;;;7.20;6.47;;;;;;;11.30;70.13;100013.66;1726180;83;27428;-76
2022/04/22 06:33:46;;;;;;;7.30;6.35;;;;;;;11.52;70.28;100013.23;1726127;83;25558;-76
2022/04/22 06:36:15;;;;;;;9.90;6.53;;;;;;;11.81;69.69;100017.16;1691428;84;25625;-75
2022/04/22 06:38:44;;;;;;;;;;;;;;;11.84;68.83;100011.88;1684428;85;26149;-76
2022/04/22 06:46:42;;;;;;;8.95;6.58;;;;;;;12.26;67.59;100020.20;1684435;83;25483;-78
2022/04/22 06:49:11;;;;;;;7.05;6.35;;;;;;;12.25;64.90;100025.94;1700921;83;25747;-76
2022/04/22 06:51:39;;;;;;;7.37;6.67;;;;;;;12.23;66.20;100028.19;1692544;84;25645;-77
2022/04/22 06:54:06;;;;;;;9.18;6.72;;;;;;;12.26;66.33;100038.36;1711019;83;25434;-77
2022/04/22 06:56:34;;;;;;;15.05;7.08;;;;;;;12.25;65.90;100038.94;1692580;84;27903;-77
2022/04/22 06:59:01;;;;;;;9.20;6.55;;;;;;;12.35;65.64;100038.34;1710779;83;25636;-76
2022/04/22 07:01:29;;;;;;;8.80;6.75;;;;;;;12.24;64.32;100038.72;1692410;84;25667;-78
2022/04/22 07:03:57;;;;;;;9.33;6.42;;;;;;;12.36;64.61;100029.89;1710927;83;25616;-76
2022/04/22 07:06:23;;;;;;;10.88;6.80;;;;;;;12.52;65.01;100037.68;1692552;84;25762;-75
2022/04/22 07:08:51;;;;;;;7.70;6.67;;;;;;;12.75;64.67;100033.30;1710868;83;27331;-75
2022/04/22 07:11:25;;;;;;;9.63;7.12;;;;;;;12.76;62.68;100027.33;1692374;84;25467;-76
2022/04/22 07:13:53;;;;;;;7.92;6.33;;;;;;;12.83;61.72;100019.45;1709983;83;25468;-76
2022/04/22 07:16:21;;;;;;;7.95;6.00;;;;;;;12.81;61.71;100026.56;1692498;84;25622;-76
2022/04/22 07:18:47;;;;;;;6.85;5.87;;;;;;;12.92;58.07;100016.09;1710989;83;25490;-77
2022/04/22 07:21:15;;;;;;;5.85;5.30;;;;;;;13.02;61.03;100021.70;1692454;84;27956;-76
2022/04/22 07:23:42;;;;;;;7.00;6.33;;;;;;;13.24;62.54;100012.41;1710824;83;25580;-77
2022/04/22 07:26:10;;;;;;;6.58;5.97;;;;;;;13.83;62.69;100012.15;1692532;84;25655;-77
2022/04/22 07:28:38;;;;;;;6.87;5.83;;;;;;;14.43;62.45;100019.09;1710822;83;25619;-76
2022/04/22 07:31:06;;;;;;;6.92;6.22;;;;;;;14.98;61.07;100022.31;1692488;84;25634;-77
2022/04/22 07:33:32;;;;;;;5.75;5.25;;;;;;;15.25;59.71;100027.55;1710729;83;27374;-77
2022/04/22 07:35:59;;;;;;;6.33;5.72;;;;;;;15.75;58.79;100027.57;1692037;84;25831;-77
2022/04/22 07:38:26;;;;;;;8.58;6.08;;;;;;;15.97;57.15;100024.81;1707282;82;25485;-77
2022/04/22 07:40:53;;;;;;;9.38;5.80;;;;;;;16.04;55.47;100026.34;1682116;85;25624;-77
2022/04/22 07:48:57;;;;;;;9.18;5.72;;;;;;;15.80;53.51;100040.95;1703031;83;27180;-75
2022/04/22 07:51:26;;;;;;;10.10;5.28;;;;;;;15.95;53.95;100046.17;1668732;84;25639;-76
2022/04/22 07:53:55;;;;;;;6.90;6.20;;;;;;;16.12;53.28;100045.03;1711126;83;25619;-76
2022/04/22 07:56:25;;;;;;;6.58;5.92;;;;;;;15.89;51.84;100046.81;1692689;84;25583;-76
2022/04/22 07:58:53;;;;;;;6.03;5.42;;;;;;;15.65;51.39;100047.92;1710897;83;28331;-75
2022/04/22 08:01:19;;;;;;;6.28;5.67;;;;;;;15.65;52.01;100041.69;1692440;84;25638;-75
2022/04/22 08:03:45;;;;;;;19.92;13.38;;;;;;;15.58;52.15;100052.38;1711414;83;25444;-75
2022/04/22 08:06:12;;;;;;;6.20;5.53;;;;;;;15.30;51.68;100055.91;1723304;83;25687;-75
2022/04/22 08:08:40;;;;;;;7.42;6.40;;;;;;;14.99;52.15;100064.76;1710949;83;25478;-75
2022/04/22 08:11:07;;;;;;;6.70;6.10;;;;;;;14.77;52.34;100069.55;1692562;84;27510;-76
2022/04/22 08:13:34;;;;;;;6.35;5.75;;;;;;;14.51;53.02;100067.95;1707260;83;25578;-74
2022/04/22 08:16:01;;;;;;;7.12;6.40;;;;;;;14.28;53.47;100068.17;1709939;83;25658;-75
2022/04/22 08:18:27;;;;;;;7.62;6.92;;;;;;;13.97;53.33;100070.28;1709870;83;26190;-75
2022/04/22 08:20:53;;;;;;;7.55;6.40;;;;;;;13.68;53.96;100072.59;1709935;83;25579;-75
2022/04/22 08:23:21;;;;;;;7.50;6.75;;;;;;;13.46;54.29;100066.97;1709745;83;28031;-75
2022/04/22 08:25:47;;;;;;;7.75;7.05;;;;;;;13.31;54.81;100075.13;1708989;83;25400;-75
2022/04/22 08:28:13;;;;;;;7.97;6.47;;;;;;;13.08;54.43;100078.76;1708958;83;25690;-75
2022/04/22 08:30:40;;;;;;;7.00;6.30;;;;;;;12.79;54.78;100082.31;1709501;83;25826;-75
2022/04/22 08:33:06;;;;;;;9.70;7.25;;;;;;;12.54;54.79;100073.98;1709114;83;25437;-72
2022/04/22 08:35:37;;;;;;;9.50;6.90;;;;;;;12.35;55.64;100070.32;1709636;83;27456;-72
2022/04/22 08:38:05;;;;;;;9.15;7.53;;;;;;;12.22;56.05;100076.19;1709353;83;26245;-71
2022/04/22 08:40:39;;;;;;;16.90;8.08;;;;;;;12.08;55.68;100079.11;1709317;83;25598;-71
2022/04/22 08:43:08;;;;;;;10.53;7.78;;;;;;;11.91;56.08;100077.81;1709404;83;25819;-72
2022/04/22 08:45:35;;;;;;;8.30;7.50;;;;;;;11.88;56.45;100076.50;1709675;83;25656;-72
2022/04/22 08:50:51;;;;;;;8.50;6.90;;;;;;;12.12;57.26;100071.94;1709444;83;25489;-72
2022/04/22 08:53:24;;;;;;;8.13;7.20;;;;;;;12.23;56.93;100066.94;1685087;83;25348;-71
2022/04/22 08:55:57;;;;;;;14.07;7.78;;;;;;;12.56;58.29;100064.94;1709270;83;25652;-72
2022/04/22 08:58:30;;;;;;;7.17;6.47;;;;;;;12.96;57.84;100061.05;1709580;83;25764;-72
2022/04/22 09:00:59;;;;;;;7.60;6.12;;;;;;;14.10;60.01;100060.23;1708458;83;27411;-72
2022/04/22 09:03:27;;;;;;;6.25;5.65;;;;;;;15.38;56.48;100061.79;1709186;83;25405;-72
2022/04/22 09:05:59;;;;;;;6.90;6.20;;;;;;;16.37;54.08;100058.50;1709446;83;25631;-72
2022/04/22 09:08:29;;;;;;;6.20;5.58;;;;;;;17.14;52.80;100055.73;1709694;83;26304;-72
2022/04/22 09:10:57;;;;;;;7.67;6.53;;;;;;;17.74;50.45;100058.05;1709398;83;25691;-72
2022/04/22 09:13:26;;;;;;;7.62;6.55;;;;;;;17.75;49.54;100059.65;1720473;81;27436;-71
2022/04/22 09:15:54;;;;;;;8.00;7.17;;;;;;;17.34;48.36;100066.88;1753881;81;25718;-71
2022/04/22 09:18:25;;;;;;;7.62;6.92;;;;;;;16.97;48.68;100063.77;1753614;81;25417;-72
2022/04/22 09:21:02;;;;;;;11.83;8.55;;;;;;;16.61;48.53;100065.69;1753957;81;25662;-71
2022/04/22 09:23:33;;;;;;;8.00;7.20;;;;;;;16.18;48.19;100066.83;1753678;81;25544;-72
2022/04/22 09:26:02;;;;;;;6.58;5.95;;;;;;;15.82;48.94;100065.14;1753216;81;27370;-71
2022/04/22 09:28:29;;;;;;;7.40;6.65;;;;;;;15.87;49.49;100060.79;1753914;81;25839;-72
2022/04/22 09:31:01;;;;;;;6.78;6.28;;;;;;;15.65;48.55;100059.41;1753875;81;25693;-72
2022/04/22 09:33:44;;;;;;;6.20;5.65;;;;;;;15.34;48.71;100053.28;1753638;81;26185;-72
2022/04/22 09:45:10;;;;;;;7.25;6.55;;;;;;;14.22;49.11;100083.12;1754088;81;25323;-72
2022/04/22 09:47:38;;;;;;;7.87;6.20;;;;;;;14.18;50.28;100087.90;1753647;81;25708;-72
2022/04/22 09:50:11;;;;;;;6.53;5.92;;;;;;;14.87;50.51;100085.42;1753895;81;25422;-73
2022/04/22 09:52:43;;;;;;;6.90;6.05;;;;;;;15.15;50.16;100081.95;1754041;81;27517;-72
2022/04/22 09:55:13;;;;;;;20.82;14.53;;;;;;;15.20;49.74;100076.26;1753191;81;25610;-73
2022/04/22 09:57:57;;;;;;;7.40;6.70;;;;;;;15.11;49.19;100075.03;1753813;81;25716;-72
2022/04/22 10:00:28;;;;;;;6.80;6.10;;;;;;;15.22;48.53;100080.00;1753920;81;25678;-73
2022/04/22 10:02:56;;;;;;;8.55;5.80;;;;;;;15.53;47.61;100073.07;1752105;81;25722;-73
2022/04/22 10:05:28;;;;;;;6.30;5.70;;;;;;;15.31;48.17;100074.64;1753876;81;27967;-73
2022/04/22 10:07:58;;;;;;;6.37;5.75;;;;;;;15.24;47.67;100077.17;1753707;81;25677;-74
2022/04/22 10:10:38;;;;;;;7.12;5.83;;;;;;;15.13;48.04;100078.78;1753908;81;25492;-72
2022/04/22 10:13:07;;;;;;;6.25;5.65;;;;;;;14.91;47.78;100084.16;1753223;81;26388;-77
2022/04/22 10:15:37;;;;;;;6.40;5.80;;;;;;;14.63;47.79;100088.97;1754086;81;25809;-73
2022/04/22 10:18:05;;;;;;;7.78;5.90;;;;;;;14.58;48.48;100089.16;1753573;81;27362;-74
2022/04/22 10:20:33;;;;;;;6.55;5.95;;;;;;;14.83;49.50;100087.80;1754040;81;25388;-73
2022/04/22 10:22:59;;;;;;;6.00;5.37;;;;;;;14.90;49.20;100080.66;1754073;81;25458;-73
2022/04/22 10:25:31;;;;;;;6.97;5.40;;;;;;;14.78;48.76;100081.23;1753707;81;25801;-72
2022/04/22 10:28:05;;;;;;;5.45;4.95;;;;;;;14.65;48.38;100076.38;1753938;81;25694;-72
2022/04/22 10:30:32;;;;;;;5.80;5.30;;;;;;;14.51;48.54;100080.20;1753969;81;28155;-73
2022/04/22 10:33:00;;;;;;;5.50;5.00;;;;;;;14.56;49.42;100074.53;1753689;81;25910;-72
2022/04/22 10:35:27;;;;;;;5.22;4.78;;;;;;;14.75;50.04;100073.19;1754090;81;25719;-75
2022/04/22 10:37:54;;;;;;;5.47;4.97;;;;;;;14.94;49.40;100070.65;1754021;81;25845;-72
2022/04/22 10:40:23;;;;;;;5.03;4.53;;;;;;;14.85;48.74;100079.53;1753303;81;25434;-75
2022/04/22 10:42:53;;;;;;;4.80;4.37;;;;;;;14.71;48.27;100081.25;1753814;81;26582;-75
2022/04/22 10:48:29;;;;;;;8.88;6.28;;;;;;;14.07;48.72;100079.94;1733026;81;25746;-75
2022/04/22 10:51:00;;;;;;;8.38;6.05;;;;;;;13.76;48.46;100083.16;1738467;81;26368;-74
2022/04/22 10:53:34;;;;;;;5.53;5.03;;;;;;;13.63;50.26;100078.23;1753153;81;25730;-74
2022/04/22 10:56:30;;;;;;;5.20;4.70;;;;;;;13.68;50.30;100080.75;1753327;81;27500;-75
2022/04/22 10:59:27;;;;;;;7.15;5.55;;;;;;;13.76;49.99;100077.73;1752918;81;26443;-75
2022/04/22 11:01:52;;;;;;;5.60;5.10;;;;;;;13.74;50.02;100079.42;1752772;81;25697;-75
2022/04/22 11:04:21;;;;;;;6.05;5.00;;;;;;;13.68;50.08;100075.89;1752990;81;25670;-74
2022/04/22 11:06:47;;;;;;;5.87;5.12;;;;;;;13.53;49.49;100073.22;1753052;81;25841;-74
2022/04/22 11:09:31;;;;;;;5.60;5.10;;;;;;;13.35;49.18;100082.08;1753042;81;28028;-75
2022/04/22 11:11:59;;;;;;;7.15;4.58;;;;;;;13.13;49.71;100066.34;1752761;81;25734;-75
2022/04/22 11:14:29;;;;;;;5.45;4.95;;;;;;;12.95;50.33;100074.37;1752905;81;25721;-75
2022/04/22 11:16:58;;;;;;;10.15;7.70;;;;;;;12.83;50.44;100070.45;1752757;81;25688;-74
2022/04/22 11:19:26;;;;;;;14.70;10.18;;;;;;;12.72;51.14;100063.84;1753025;81;25461;-75
2022/04/22 11:21:58;;;;;;;7.90;6.00;;;;;;;12.72;51.89;100069.27;1753539;81;28019;-75
2022/04/22 11:24:33;;;;;;;6.53;5.90;;;;;;;12.72;51.57;100059.77;1753559;81;25625;-75
2022/04/22 11:27:06;;;;;;;5.97;5.47;;;;;;;12.80;52.39;100063.53;1753980;81;25706;-74
2022/04/22 11:29:33;;;;;;;6.05;5.53;;;;;;;12.97;52.61;100074.27;1753811;81;25667;-75
2022/04/22 11:32:09;;;;;;;8.15;5.62;;;;;;;13.37;52.99;100056.75;1753671;81;25615;-75
2022/04/22 11:35:10;;;;;;;6.08;5.22;;;;;;;13.97;52.87;100058.63;1753669;81;27467;-74
2022/04/22 11:37:37;;;;;;;5.87;5.37;;;;;;;14.13;51.57;100051.95;1753885;81;25774;-75
2022/04/22 11:40:08;;;;;;;6.10;5.08;;;;;;;13.95;51.42;100059.53;1753581;81;25679;-75
2022/04/22 11:42:43;;;;;;;5.53;5.03;;;;;;;13.86;50.74;100058.81;1754203;81;26216;-76
2022/04/22 11:45:13;;;;;;;5.22;4.78;;;;;;;13.82;52.16;100057.34;1754017;81;25686;-76
2022/04/22 11:47:41;;;;;;;7.15;5.12;;;;;;;14.07;50.92;100045.16;1754704;81;27391;-75
2022/04/22 11:50:09;;;;;;;6.30;5.53;;;;;;;14.09;50.63;100053.20;1755869;81;25386;-75
2022/04/22 11:52:36;;;;;;;5.80;5.22;;;;;;;14.00;50.60;100047.08;1756473;81;25274;-76
2022/04/22 11:55:06;;;;;;;5.97;4.62;;;;;;;14.00;50.51;100049.80;1755980;81;25660;-76
2022/04/22 11:57:36;;;;;;;5.85;5.25;;;;;;;13.97;50.90;100048.53;1756340;81;25297;-76
2022/04/22 12:05:53;;;;;;;5.80;4.92;;;;;;;15.58;51.56;100028.66;1756198;81;25781;-75
2022/04/22 12:08:20;;;;;;;6.47;5.70;;;;;;;16.33;50.25;100037.95;1755028;81;25660;-77
2022/04/22 12:10:48;;;;;;;5.70;4.35;;;;;;;16.26;47.99;100033.70;1754080;81;25371;-77
2022/04/22 12:13:16;;;;;;;7.08;4.40;;;;;;;15.84;45.67;100033.63;1754004;81;27930;-75
2022/04/22 12:15:48;;;;;;;5.30;4.80;;;;;;;15.47;46.72;100023.48;1755069;81;25796;-76
2022/04/22 12:18:33;;;;;;;5.20;4.70;;;;;;;15.21;46.88;100019.28;1755781;81;25772;-76
2022/04/22 12:21:01;;;;;;;5.17;4.78;;;;;;;14.98;47.21;100019.59;1755797;81;26136;-76
2022/04/22 12:23:40;;;;;;;7.17;5.10;;;;;;;14.61;46.98;100020.47;1755635;81;25677;-75
2022/04/22 12:26:23;;;;;;;5.45;4.95;;;;;;;14.33;47.92;100023.84;1754500;81;32421;-78
2022/04/22 12:29:10;;;;;;;7.45;5.15;;;;;;;14.05;48.16;100020.23;1755656;81;25720;-77
2022/04/22 12:31:45;;;;;;;4.92;4.53;;;;;;;13.85;48.41;100024.63;1755851;81;25380;-77
2022/04/22 12:34:32;;;;;;;7.28;5.53;;;;;;;13.72;49.09;100022.43;1730784;81;25810;-76
2022/04/22 12:37:01;;;;;;;5.87;4.50;;;;;;;13.56;48.86;100017.64;1755892;81;25619;-77
2022/04/22 12:39:42;;;;;;;5.20;4.75;;;;;;;13.42;49.27;100016.59;1755643;81;25775;-77
2022/04/22 12:42:23;;;;;;;4.90;4.50;;;;;;;13.24;49.37;100009.12;1755593;81;25573;-76
2022/04/22 12:53:34;;;;;;;5.03;4.53;;;;;;;12.86;50.14;100013.37;1758773;81;27489;-77